Latest Weather Observations for Weipa

IDQ60801

Issued at 12:02 am EST Thursday 28 January 2021 (issued every 10 minutes, with the page automatically refreshed every 10 minutes)

About weather observations | Map of weather stations | Latest weather observations for QLD | Other Formats
Station Details ID: 027045 Name: WEIPA AERO Lat: -12.68 Lon: 141.92 Height: 17.96 m
Data from the previous 72 hours. | See also: Recent months at Weipa
Date/Time
EST
Temp
°C
App
Temp
°C
Dew
Point
°C
Rel
Hum
%
Delta-T
°C
Wind Press
QNH
hPa
Press
MSL
hPa
Rain since
9am
mm
Dir  Spd
km/h
Gust
km/h
Spd
kts
Gust
kts
28/12:00am 26.1 30.5 24.5 91 1.1 N 9 13 5 7 1003.7 1003.6 18.2
 
Date/Time
EST
Temp
°C
App
Temp
°C
Dew
Point
°C
Rel
Hum
%
Delta-T
°C
Wind Press
QNH
hPa
Press
MSL
hPa
Rain since
9am
mm
Dir  Spd
km/h
Gust
km/h
Spd
kts
Gust
kts
27/11:30pm 26.1 30.5 24.5 91 1.1 NNW 9 13 5 7 1004.1 1004.0 18.2
27/11:00pm 26.2 30.3 24.6 91 1.1 NNW 11 17 6 9 1004.0 1003.9 18.2
27/10:30pm 26.2 30.7 24.6 91 1.1 N 9 13 5 7 1004.2 1004.1 18.2
27/10:00pm 26.1 31.0 24.7 92 1.0 NNW 7 9 4 5 1004.2 1004.1 18.2
27/09:30pm 25.8 31.9 24.4 92 1.0 CALM 0 6 0 3 1004.0 1003.9 18.2
27/09:00pm 25.9 30.7 24.5 92 1.0 N 7 9 4 5 1003.5 1003.4 18.2
27/08:30pm 26.1 30.2 24.5 91 1.1 NNW 11 15 6 8 1003.3 1003.2 18.2
27/08:00pm 26.0 29.7 24.6 92 1.0 NNW 13 19 7 10 1003.0 1002.9 18.0
27/07:30pm 25.7 29.3 24.3 92 1.0 NNW 13 19 7 10 1002.7 1002.6 18.0
27/07:00pm 25.5 29.8 24.3 93 0.8 NNW 9 15 5 8 1002.7 1002.6 18.0
27/06:31pm 25.3 28.2 23.9 92 1.0 NNW 15 19 8 10 1002.6 1002.5 18.0
27/06:30pm 25.3 28.2 23.9 92 1.0 NNW 15 19 8 10 1002.5 1002.4 18.0
27/06:08pm 25.6 28.2 24.0 91 1.1 NW 17 44 9 24 1002.5 1002.4 16.2
27/06:00pm 25.7 29.5 24.1 91 1.1 NW 11 15 6 8 1002.4 1002.3 15.0
27/05:45pm 25.5 28.3 23.6 89 1.3 NW 15 20 8 11 1002.4 1002.3 14.8
27/05:30pm 25.5 28.2 24.1 92 1.0 NW 17 22 9 12 1002.0 1001.9 14.8
27/05:20pm 25.0 28.0 23.4 91 1.1 NW 13 17 7 9 1002.2 1002.1 14.0
27/05:00pm 25.0 26.6 22.9 88 1.4 WNW 19 30 10 16 1001.8 1001.7 13.4
27/04:58pm 25.2 27.6 23.6 91 1.1 WNW 17 30 9 16 1001.9 1001.8 13.2
27/04:30pm 25.3 27.8 23.2 88 1.4 NW 15 19 8 10 1001.9 1001.8 11.4
27/04:00pm 25.7 27.4 24.1 91 1.1 NNW 22 32 12 17 1002.3 1002.2 11.4
27/03:50pm 25.8 28.7 24.4 92 1.0 NNW 17 22 9 12 1002.6 1002.5 11.0
27/03:30pm 26.0 29.0 24.6 92 1.0 NW 17 24 9 13 1002.7 1002.6 10.8
27/03:19pm 25.8 28.7 24.4 92 1.0 NW 17 22 9 12 1002.7 1002.6 10.8
27/03:11pm 25.8 29.4 24.4 92 1.0 NW 13 20 7 11 1002.6 1002.5 10.8
27/03:00pm 25.5 28.6 24.1 92 1.0 WNW 15 26 8 14 1002.7 1002.6 10.2
27/02:52pm 25.6 26.8 23.8 90 1.2 WNW 24 48 13 26 1002.8 1002.7 6.6
27/02:45pm 26.2 28.0 23.5 85 1.8 WNW 20 48 11 26 1002.6 1002.5 3.0
27/02:43pm 26.9 28.9 23.6 82 2.3 NW 19 48 10 26 1002.5 1002.4 2.4
27/02:30pm 28.5 32.0 24.9 81 2.5 NW 15 24 8 13 1002.3 1002.2 1.4
27/02:17pm 28.7 31.2 24.5 78 2.9 NW 19 26 10 14 1002.6 1002.5 1.4
27/02:01pm 28.7 30.0 24.0 76 3.3 NW 24 35 13 19 1002.6 1002.5 1.4
27/02:00pm 28.8 31.0 24.8 79 2.8 NW 22 35 12 19 1002.6 1002.5 1.4
27/01:30pm 30.1 33.3 25.6 77 3.2 NW 19 28 10 15 1002.6 1002.5 1.4
27/01:00pm 29.4 33.0 25.6 80 2.7 NNW 17 24 9 13 1003.3 1003.2 1.4
27/12:30pm 28.2 31.6 25.2 84 2.1 NNW 17 20 9 11 1003.6 1003.5 1.4
27/12:00pm 26.7 28.1 24.2 86 1.7 NNW 24 35 13 19 1004.1 1004.0 1.4
27/11:30am 28.7 32.4 25.1 81 2.5 NNW 15 20 8 11 1004.4 1004.3 0.4
27/11:00am 28.2 33.1 25.8 87 1.7 N 11 17 6 9 1004.6 1004.5 0.4
27/10:30am 27.4 31.8 25.0 87 1.7 N 11 15 6 8 1004.7 1004.6 0.4
27/10:00am 27.0 31.4 25.0 89 1.4 N 11 19 6 10 1004.7 1004.6 0.4
27/09:30am 26.7 31.5 25.1 91 1.1 N 9 13 5 7 1004.6 1004.5 0.0
27/09:00am 26.1 30.7 24.7 92 1.0 N 9 13 5 7 1004.1 1004.0 29.4
27/08:34am 26.0 30.9 24.6 92 1.0 N 7 11 4 6 1004.1 1004.0 29.4
27/08:30am 25.9 30.7 24.5 92 1.0 NNE 7 9 4 5 1004.2 1004.1 29.2
27/08:13am 25.9 30.0 24.5 92 1.0 NNW 11 17 6 9 1004.2 1004.1 28.2
27/08:00am 26.0 29.6 24.4 91 1.1 N 13 24 7 13 1004.0 1003.9 26.6
27/07:30am 25.7 29.4 23.9 90 1.2 N 11 15 6 8 1003.4 1003.3 26.4
27/07:00am 25.9 30.0 24.5 92 1.0 NNW 11 24 6 13 1003.0 1002.9 26.4
27/06:30am 25.9 29.2 24.5 92 1.0 N 15 22 8 12 1002.2 1002.1 26.2
27/06:00am 25.6 30.2 24.2 92 1.0 NNE 7 11 4 6 1002.4 1002.3 26.0
27/05:30am 25.6 30.0 24.4 93 0.8 NNE 9 15 5 8 1001.8 1001.7 26.0
27/05:00am 25.5 30.2 24.3 93 0.8 NNE 7 11 4 6 1002.1 1002.0 26.0
27/04:30am 25.4 29.9 24.0 92 1.0 NNE 7 9 4 5 1002.0 1001.9 26.0
27/04:00am 25.5 29.2 23.9 91 1.1 N 11 13 6 7 1001.9 1001.8 26.0
27/03:30am 25.4 29.5 24.0 92 1.0 N 9 13 5 7 1001.9 1001.8 26.0
27/03:00am 25.5 29.4 24.3 93 0.8 N 11 17 6 9 1002.4 1002.3 26.0
27/02:30am 25.3 29.5 24.1 93 0.8 N 9 13 5 7 1002.5 1002.4 25.2
27/02:00am 25.3 29.4 23.9 92 1.0 NNE 9 13 5 7 1002.6 1002.5 25.2
27/01:30am 25.3 29.4 23.9 92 1.0 NNE 9 13 5 7 1003.1 1003.0 25.2
27/01:00am 25.3 30.3 23.9 92 1.0 ENE 4 7 2 4 1003.4 1003.3 25.2
27/12:30am 25.3 29.6 23.7 91 1.1 NE 7 9 4 5 1003.6 1003.5 25.2
27/12:00am 25.3 28.9 23.7 91 1.1 NNE 11 13 6 7 1003.8 1003.7 25.2
 
Date/Time
EST
Temp
°C
App
Temp
°C
Dew
Point
°C
Rel
Hum
%
Delta-T
°C
Wind Press
QNH
hPa
Press
MSL
hPa
Rain since
9am
mm
Dir  Spd
km/h
Gust
km/h
Spd
kts
Gust
kts
26/11:30pm 25.5 29.6 23.9 91 1.1 NE 9 13 5 7 1004.2 1004.1 25.2
26/11:00pm 25.7 30.4 24.3 92 1.0 NNE 7 11 4 6 1004.4 1004.3 25.2
26/10:30pm 25.7 30.4 24.3 92 1.0 NNE 7 9 4 5 1004.4 1004.3 25.2
26/10:00pm 25.8 30.2 24.4 92 1.0 NE 9 13 5 7 1003.7 1003.6 25.2
26/09:30pm 25.8 30.2 24.4 92 1.0 NNE 9 13 5 7 1003.1 1003.0 25.2
26/09:00pm 25.8 30.6 24.4 92 1.0 N 7 11 4 6 1002.7 1002.6 25.2
26/08:30pm 25.8 29.7 24.2 91 1.1 N 11 13 6 7 1002.4 1002.3 25.2
26/08:00pm 26.0 29.9 24.2 90 1.2 N 11 15 6 8 1002.8 1002.7 25.2
26/07:30pm 26.2 30.2 24.4 90 1.2 N 11 15 6 8 1003.0 1002.9 25.2
26/07:00pm 26.4 30.4 24.4 89 1.4 NNW 11 17 6 9 1003.1 1003.0 25.2
26/06:30pm 26.6 29.6 24.6 89 1.4 NNW 17 20 9 11 1002.7 1002.6 25.2
26/06:00pm 26.7 30.1 24.7 89 1.4 NNW 15 20 8 11 1002.5 1002.4 25.2
26/05:30pm 26.9 31.7 25.1 90 1.3 NNW 9 15 5 8 1002.2 1002.1 25.0
26/05:27pm 26.9 31.7 25.1 90 1.3 NNW 9 15 5 8 1002.2 1002.1 25.0
26/05:02pm 26.1 30.4 24.3 90 1.2 WNW 9 11 5 6 1002.2 1002.1 22.2
26/05:00pm 26.2 30.5 24.2 89 1.4 WNW 9 11 5 6 1002.3 1002.2 22.0
26/04:45pm 26.8 31.2 24.5 87 1.6 NW 9 11 5 6 1002.3 1002.2 16.4
26/04:30pm 27.2 30.6 24.7 86 1.7 NW 15 20 8 11 1002.3 1002.2 15.6
26/04:00pm 26.9 29.3 24.2 85 1.9 NW 19 26 10 14 1002.5 1002.4 15.6
26/03:52pm 26.8 29.5 24.8 89 1.4 NW 19 24 10 13 1002.4 1002.3 15.6
26/03:41pm 25.8 26.5 23.7 88 1.4 NW 26 44 14 24 1002.3 1002.2 15.6
26/03:30pm 27.7 29.4 24.7 84 2.1 NW 24 35 13 19 1001.9 1001.8 15.0
26/03:00pm 28.3 30.1 24.3 79 2.8 NW 22 35 12 19 1002.6 1002.5 15.0
26/02:30pm 27.9 29.7 24.3 81 2.5 NW 22 33 12 18 1002.8 1002.7 15.0
26/02:00pm 27.4 29.4 24.5 84 2.0 NW 22 32 12 17 1003.2 1003.1 15.0
26/01:30pm 27.0 28.2 24.5 86 1.7 NW 26 35 14 19 1003.0 1002.9 15.0
26/01:00pm 26.4 27.3 23.3 83 2.1 WNW 24 35 13 19 1003.5 1003.4 15.0
26/12:30pm 26.1 27.0 23.4 85 1.8 WNW 24 41 13 22 1004.1 1004.0 14.8
26/12:00pm 24.9 25.5 22.8 88 1.4 WNW 24 39 13 21 1004.4 1004.3 14.8
26/11:55am 24.9 25.4 22.6 87 1.5 NW 24 39 13 21 1004.4 1004.3 14.8
26/11:42am 24.6 26.8 23.2 92 0.9 WNW 17 26 9 14 1004.4 1004.3 14.8
26/11:30am 24.1 24.3 22.7 92 0.9 WNW 26 44 14 24 1004.8 1004.7 14.6
26/11:22am 24.1 23.3 22.4 90 1.1 W 30 52 16 28 1005.0 1004.9 14.2
26/11:18am 24.3 24.7 22.4 89 1.3 W 24 52 13 28 1005.0 1004.9 13.0
26/11:15am 25.2 27.0 23.3 89 1.3 W 19 35 10 19 1004.7 1004.6 10.4
26/11:00am 25.8 29.7 24.2 91 1.1 NW 11 17 6 9 1004.4 1004.3 8.8
26/10:53am 25.6 29.4 24.0 91 1.1 WNW 11 17 6 9 1005.0 1004.9 8.6
26/10:30am 25.0 29.5 23.6 92 1.0 WNW 6 13 3 7 1004.9 1004.8 7.2
26/10:00am 24.9 28.7 23.5 92 1.0 NW 9 13 5 7 1005.2 1005.1 6.8
26/09:55am 24.8 28.6 23.4 92 1.0 WNW 9 13 5 7 1005.1 1005.0 6.8
26/09:35am 24.8 27.0 23.2 91 1.1 NW 17 28 9 15 1005.5 1005.4 6.2
26/09:34am 24.8 27.3 23.2 91 1.1 NW 15 28 8 15 1005.6 1005.5 5.4
26/09:30am 24.8 28.1 23.2 91 1.1 WNW 11 17 6 9 1005.6 1005.5 3.4
26/09:00am 24.9 29.0 23.3 91 1.1 WSW 7 17 4 9 1005.4 1005.3 16.0
26/08:52am 24.9 27.4 23.1 90 1.2 WSW 15 30 8 16 1005.5 1005.4 15.2
26/08:47am 25.1 27.7 23.3 90 1.2 WSW 15 30 8 16 1005.5 1005.4 15.2
26/08:30am 26.1 30.2 24.0 88 1.4 N 9 13 5 7 1005.1 1005.0 14.0
26/08:00am 25.9 29.9 23.8 88 1.4 N 9 11 5 6 1004.6 1004.5 14.0
26/07:30am 25.8 30.3 24.0 90 1.2 N 7 9 4 5 1004.3 1004.2 14.0
26/07:00am 25.7 29.4 23.9 90 1.2 NW 11 17 6 9 1004.3 1004.2 14.0
26/06:30am 25.6 30.6 23.8 90 1.2 NNW 4 7 2 4 1003.9 1003.8 13.8
26/06:00am 25.8 29.4 23.8 89 1.4 N 11 15 6 8 1003.8 1003.7 13.8
26/05:30am 25.8 30.1 24.2 91 1.1 N 9 24 5 13 1003.5 1003.4 13.4
26/05:00am 25.9 30.5 24.1 90 1.2 NNE 7 9 4 5 1003.0 1002.9 13.0
26/04:30am 26.2 30.0 24.1 88 1.4 N 11 15 6 8 1002.9 1002.8 12.8
26/04:00am 25.7 30.3 24.1 91 1.1 NNE 7 9 4 5 1002.7 1002.6 12.8
26/03:30am 25.9 30.2 24.3 91 1.1 N 9 11 5 6 1002.8 1002.7 12.8
26/03:00am 25.7 30.4 24.3 92 1.0 N 7 9 4 5 1003.2 1003.1 12.8
26/02:30am 25.5 30.0 23.9 91 1.1 NNE 7 9 4 5 1003.5 1003.4 12.8
26/02:00am 25.8 30.4 24.2 91 1.1 NNE 7 9 4 5 1004.1 1004.0 12.8
26/01:30am 25.9 30.6 24.3 91 1.1 NNE 7 11 4 6 1004.2 1004.1 12.8
26/01:00am 25.7 30.4 24.3 92 1.0 NNE 7 9 4 5 1004.2 1004.1 12.8
26/12:30am 25.7 30.4 24.3 92 1.0 NNE 7 9 4 5 1004.7 1004.6 12.8
26/12:00am 25.6 30.1 24.0 91 1.1 NNE 7 9 4 5 1005.3 1005.2 12.8
 
Date/Time
EST
Temp
°C
App
Temp
°C
Dew
Point
°C
Rel
Hum
%
Delta-T
°C
Wind Press
QNH
hPa
Press
MSL
hPa
Rain since
9am
mm
Dir  Spd
km/h
Gust
km/h
Spd
kts
Gust
kts
25/11:30pm 26.0 29.8 24.0 89 1.4 N 11 15 6 8 1005.4 1005.3 12.8
25/11:00pm 25.8 29.8 23.8 89 1.4 N 9 11 5 6 1005.8 1005.7 12.8
25/10:30pm 26.1 29.9 24.1 89 1.4 NNW 11 15 6 8 1005.7 1005.6 12.8
25/10:00pm 25.3 28.4 23.5 90 1.2 WNW 13 24 7 13 1005.6 1005.5 12.8
25/09:48pm 25.4 27.8 23.6 90 1.2 WNW 17 28 9 15 1005.7 1005.6 12.8
25/09:45pm 25.5 28.1 23.9 91 1.1 WNW 17 28 9 15 1005.7 1005.6 12.8
25/09:30pm 25.5 27.7 23.9 91 1.1 WNW 19 35 10 19 1005.6 1005.5 12.4
25/09:08pm 26.1 30.7 24.7 92 1.0 NW 9 22 5 12 1005.0 1004.9 3.6
25/09:00pm 26.2 29.6 24.6 91 1.1 NNW 15 24 8 13 1005.0 1004.9 3.2
25/08:55pm 26.1 30.3 24.7 92 1.0 N 11 24 6 13 1005.1 1005.0 2.6
25/08:30pm 26.1 31.0 24.7 92 1.0 N 7 11 4 6 1004.7 1004.6 0.4
25/08:00pm 26.2 31.1 24.6 91 1.1 N 7 9 4 5 1004.7 1004.6 0.4
25/07:30pm 26.3 31.1 24.5 90 1.2 NNE 7 11 4 6 1004.4 1004.3 0.4
25/07:00pm 26.4 31.0 24.8 91 1.1 NE 9 13 5 7 1004.1 1004.0 0.4
25/06:30pm 26.4 30.4 24.4 89 1.4 N 11 13 6 7 1004.1 1004.0 0.4
25/06:07pm 26.5 30.6 24.5 89 1.4 N 11 15 6 8 1003.9 1003.8 0.2
25/06:00pm 26.6 30.5 24.3 87 1.6 N 11 17 6 9 1003.9 1003.8 0.2
25/05:56pm 26.6 30.2 24.3 87 1.6 N 13 17 7 9 1003.9 1003.8 0.2
25/05:30pm 27.3 30.9 24.4 84 2.0 N 13 17 7 9 1003.8 1003.7 0.2
25/05:00pm 27.5 30.8 23.9 81 2.5 N 13 17 7 9 1003.7 1003.6 0.2
25/04:30pm 27.4 30.2 23.6 80 2.6 NNE 15 20 8 11 1003.5 1003.4 0.2
25/04:00pm 27.5 29.8 23.5 79 2.8 NNW 17 20 9 11 1003.6 1003.5 0.2
25/03:30pm 27.7 30.4 23.5 78 2.9 N 15 20 8 11 1003.9 1003.8 0.2
25/03:00pm 28.0 30.9 23.8 78 2.9 N 15 20 8 11 1004.1 1004.0 0.2
25/02:30pm 28.1 30.0 23.5 76 3.2 N 19 26 10 14 1004.3 1004.2 0.2
25/02:00pm 28.0 29.8 23.6 77 3.0 N 20 28 11 15 1004.5 1004.4 0.2
25/01:30pm 27.9 30.1 23.9 79 2.8 N 19 26 10 14 1005.1 1005.0 0.2
25/01:00pm 28.2 30.4 24.2 79 2.8 N 20 30 11 16 1005.6 1005.5 0.0
25/12:30pm 28.2 30.8 24.0 78 2.9 N 17 24 9 13 1006.4 1006.3 0.0
25/12:00pm 28.0 30.4 24.2 80 2.6 N 19 28 10 15 1006.8 1006.7 0.0
25/11:30am 27.0 29.0 23.9 83 2.1 NNE 20 30 11 16 1007.1 1007.0 0.0
25/11:25am 27.9 30.1 23.9 79 2.8 NNE 19 28 10 15 1007.0 1006.9 0.0
25/11:05am 27.3 29.7 24.2 83 2.1 NNE 19 26 10 14 1007.2 1007.1 0.0
25/11:04am 27.3 29.5 24.0 82 2.3 NNE 19 26 10 14 1007.2 1007.1 0.0
25/11:00am 27.3 29.6 24.4 84 2.0 N 20 26 11 14 1007.2 1007.1 0.0
25/10:41am 27.2 30.3 24.8 87 1.7 NNE 17 22 9 12 1007.3 1007.2 0.0
25/10:37am 27.0 29.7 24.8 88 1.5 NNE 19 24 10 13 1007.3 1007.2 0.0
25/10:30am 26.7 29.6 24.5 88 1.5 NNE 17 24 9 13 1007.4 1007.3 0.0
25/10:00am 26.2 28.5 24.1 88 1.4 NNE 19 28 10 15 1007.6 1007.5 0.0
25/09:30am 26.2 28.7 24.4 90 1.2 NE 19 28 10 15 1007.0 1006.9 0.0
25/09:00am 25.8 29.0 24.4 92 1.0 NE 15 26 8 14 1007.2 1007.1 11.2
25/08:52am 25.5 28.6 24.1 92 1.0 NE 15 20 8 11 1007.2 1007.1 11.2
25/08:40am 25.4 28.8 24.0 92 1.0 NE 13 20 7 11 1007.2 1007.1 11.2
25/08:36am 25.3 29.0 23.9 92 1.0 NE 11 15 6 8 1007.3 1007.2 11.2
25/08:30am 25.2 28.5 23.8 92 1.0 NNE 13 17 7 9 1007.2 1007.1 11.0
25/08:00am 25.2 28.0 23.6 91 1.1 NE 15 20 8 11 1006.8 1006.7 11.0
25/07:30am 24.9 28.0 23.5 92 1.0 NE 13 17 7 9 1006.3 1006.2 10.8
25/07:00am 24.7 26.9 23.3 92 1.0 ENE 17 22 9 12 1006.1 1006.0 10.8
25/06:58am 24.7 26.9 23.3 92 1.0 ENE 17 22 9 12 1006.0 1005.9 10.8
25/06:44am 24.7 26.9 23.3 92 1.0 NE 17 20 9 11 1005.8 1005.7 10.8
25/06:30am 24.7 27.3 23.3 92 1.0 ENE 15 20 8 11 1005.7 1005.6 10.8
25/06:00am 24.6 26.8 23.2 92 1.0 ENE 17 20 9 11 1005.2 1005.1 10.8
25/05:30am 24.7 27.2 23.1 91 1.1 ENE 15 19 8 10 1005.1 1005.0 10.6
25/05:00am 24.5 27.0 23.1 92 1.0 ENE 15 19 8 10 1004.6 1004.5 10.6
25/04:30am 24.4 26.8 23.0 92 0.9 ENE 15 19 8 10 1004.6 1004.5 10.6
25/04:00am 24.5 27.0 23.1 92 1.0 ENE 15 20 8 11 1004.6 1004.5 10.6
25/03:30am 24.5 27.0 23.1 92 0.9 NE 15 19 8 10 1004.7 1004.6 10.6
25/03:00am 24.4 27.6 23.0 92 0.9 ENE 11 15 6 8 1005.1 1005.0 10.6
25/02:30am 24.4 27.7 23.2 93 0.8 E 11 15 6 8 1005.4 1005.3 10.6
25/02:00am 24.4 26.9 23.2 93 0.8 E 15 19 8 10 1005.7 1005.6 10.6
25/01:30am 24.5 26.6 23.1 92 0.9 E 17 20 9 11 1006.0 1005.9 10.6
25/01:00am 24.5 27.1 23.3 93 0.8 E 15 20 8 11 1006.2 1006.1 10.6
25/12:30am 24.5 27.1 23.3 93 0.8 E 15 19 8 10 1006.8 1006.7 10.6

Other formats

Comma delimited format used in spreadsheet applications
http://www.bom.gov.au/fwo/IDQ60801/IDQ60801.94170.axf

JavaScript Object Notation format (JSON) in row-major order
http://www.bom.gov.au/fwo/IDQ60801/IDQ60801.94170.json

Data quality

Most of these data are generated automatically and are frequently updated. Quality checks on data are not normally performed. It is possible for incorrect values to appear. Refer to information at About Latest Weather Observations and please check the disclaimer before using these data.